Time;durP1;ratioP1;P1;durP2;ratioP2;P2;SDS_P1;SDS_P2;PMS_P1;PMS_P2;Temp;Humidity;BMP_temperature;BMP_pressure;BME280_temperature;BME280_humidity;BME280_pressure;Samples;Min_cycle;Max_cycle;Signal;HPM_P1;HPM_P2
2022/12/13 00:00:39;;;;;;;0.93;0.80;;;;;;;7.15;100.00;98656.91;5091528;28;20282;-64
2022/12/13 00:03:07;;;;;;;1.80;1.10;;;;;;;7.07;100.00;98644.25;5091810;28;20573;-63
2022/12/13 00:05:34;;;;;;;1.17;1.17;;;;;;;7.11;100.00;98658.72;5092160;28;20710;-63
2022/12/13 00:08:02;;;;;;;1.00;1.00;;;;;;;7.02;100.00;98660.72;5091500;28;20318;-64
2022/12/13 00:10:29;;;;;;;1.40;1.30;;;;;;;7.02;100.00;98671.06;5091724;28;20285;-56
2022/12/13 00:12:57;;;;;;;1.33;1.27;;;;;;;7.11;100.00;98670.81;5091456;28;20293;-55
2022/12/13 00:15:24;;;;;;;1.03;1.03;;;;;;;7.03;100.00;98665.84;5091694;28;20288;-56
2022/12/13 00:17:51;;;;;;;1.60;1.50;;;;;;;6.94;100.00;98668.69;5091906;28;20195;-55
2022/12/13 00:20:18;;;;;;;1.70;1.60;;;;;;;6.91;100.00;98664.47;5091494;28;20632;-63
2022/12/13 00:22:45;;;;;;;2.00;1.80;;;;;;;6.83;100.00;98676.72;5091343;28;20195;-64
2022/12/13 00:25:12;;;;;;;1.97;1.87;;;;;;;6.87;100.00;98682.66;5091529;28;20199;-64
2022/12/13 00:27:38;;;;;;;2.00;1.90;;;;;;;6.78;100.00;98681.16;5091405;28;20199;-64
2022/12/13 00:30:08;;;;;;;2.57;2.00;;;;;;;6.82;100.00;98694.81;5091685;28;20315;-64
2022/12/13 00:32:35;;;;;;;2.27;2.10;;;;;;;6.74;100.00;98696.75;5091289;28;20671;-57
2022/12/13 00:35:02;;;;;;;2.13;2.00;;;;;;;6.74;100.00;98696.75;5091109;28;20237;-57
2022/12/13 00:37:29;;;;;;;2.13;2.03;;;;;;;6.71;100.00;98686.53;5091284;28;20227;-55
2022/12/13 00:39:56;;;;;;;2.70;2.00;;;;;;;6.69;100.00;98691.72;5091021;28;20195;-56
2022/12/13 00:42:23;;;;;;;2.53;2.33;;;;;;;6.67;100.00;98692.63;5091244;28;20199;-56
2022/12/13 00:44:49;;;;;;;2.27;2.17;;;;;;;6.61;100.00;98705.69;5090875;28;20865;-55
2022/12/13 00:47:19;;;;;;;2.40;2.20;;;;;;;6.64;100.00;98700.47;5091002;28;20576;-57
2022/12/13 00:49:46;;;;;;;2.60;2.40;;;;;;;6.53;100.00;98705.91;5091163;28;20227;-57
2022/12/13 00:52:13;;;;;;;3.03;2.17;;;;;;;6.60;100.00;98702.28;5090955;28;20197;-56
2022/12/13 00:54:40;;;;;;;2.10;2.00;;;;;;;6.54;100.00;98705.03;5090568;28;20203;-56
2022/12/13 00:57:07;;;;;;;2.70;2.50;;;;;;;6.52;100.00;98697.31;5090790;28;20706;-56
2022/12/13 00:59:34;;;;;;;1.93;1.80;;;;;;;6.48;100.00;98711.16;5090813;28;20202;-57
2022/12/13 01:02:01;;;;;;;2.33;2.13;;;;;;;6.46;100.00;98702.63;5090575;28;20299;-56
2022/12/13 01:04:29;;;;;;;1.87;1.77;;;;;;;6.40;100.00;98710.53;5090709;28;20207;-55
2022/12/13 01:06:56;;;;;;;2.10;2.00;;;;;;;6.37;100.00;98714.88;5090477;28;20229;-55
2022/12/13 01:09:26;;;;;;;2.17;1.87;;;;;;;6.26;100.00;98722.88;5089818;28;20583;-55
2022/12/13 01:11:57;;;;;;;2.03;1.93;;;;;;;6.21;100.00;98713.59;5090372;28;20205;-56
2022/12/13 01:14:24;;;;;;;1.80;1.70;;;;;;;6.18;100.00;98709.34;5090352;28;20231;-65
2022/12/13 01:16:54;;;;;;;2.10;1.90;;;;;;;6.14;100.00;98712.88;5090427;28;20225;-66
2022/12/13 01:19:21;;;;;;;1.80;1.70;;;;;;;6.10;100.00;98722.38;5090516;28;20304;-65
2022/12/13 01:21:50;;;;;;;2.30;2.10;;;;;;;6.00;100.00;98722.66;5090305;28;20580;-56
2022/12/13 01:24:19;;;;;;;2.40;2.30;;;;;;;6.03;100.00;98717.44;5090259;28;20199;-56
2022/12/13 01:26:46;;;;;;;3.17;2.20;;;;;;;5.96;100.00;98708.16;5089993;28;20264;-56
2022/12/13 01:29:13;;;;;;;2.13;2.03;;;;;;;5.98;100.00;98714.13;5090195;28;20202;-56
2022/12/13 01:31:41;;;;;;;2.00;1.90;;;;;;;5.93;100.00;98710.81;5090480;28;20203;-56
2022/12/13 01:34:09;;;;;;;2.43;2.23;;;;;;;5.97;100.00;98723.59;5090153;28;20203;-56
2022/12/13 01:36:36;;;;;;;2.20;2.00;;;;;;;6.06;100.00;98728.53;5090191;28;20223;-55
2022/12/13 01:39:05;;;;;;;2.03;1.93;;;;;;;6.00;100.00;98731.22;5089905;28;20192;-56
2022/12/13 01:41:33;;;;;;;2.07;1.97;;;;;;;5.97;100.00;98731.31;5089736;28;20291;-57
2022/12/13 01:44:02;;;;;;;2.83;2.63;;;;;;;5.93;100.00;98739.13;5089927;28;20207;-57
2022/12/13 01:46:29;;;;;;;2.77;2.43;;;;;;;5.93;100.00;98739.97;5090208;28;20645;-57
2022/12/13 01:49:01;;;;;;;2.53;2.33;;;;;;;5.95;100.00;98752.81;5090037;28;20209;-57
2022/12/13 01:51:34;;;;;;;3.00;2.60;;;;;;;5.94;100.00;98738.25;5090112;28;20199;-56
2022/12/13 01:54:06;;;;;;;2.90;2.70;;;;;;;5.89;100.00;98742.66;5089751;28;20205;-56
2022/12/13 01:56:39;;;;;;;3.00;2.80;;;;;;;5.92;100.00;98742.59;5089673;28;20215;-64
2022/12/13 01:59:09;;;;;;;3.30;3.03;;;;;;;5.89;100.00;98746.06;5090035;28;20199;-55
2022/12/13 02:01:36;;;;;;;2.80;2.67;;;;;;;5.88;100.00;98738.34;5089909;28;20586;-64
2022/12/13 02:04:03;;;;;;;3.10;2.90;;;;;;;5.80;100.00;98741.09;5089573;28;20195;-64
2022/12/13 02:06:34;;;;;;;3.40;2.90;;;;;;;5.76;100.00;98740.31;5089688;28;20195;-65
2022/12/13 02:09:02;;;;;;;3.33;3.13;;;;;;;5.78;100.00;98733.41;5089760;28;20582;-57
2022/12/13 02:11:31;;;;;;;3.00;2.80;;;;;;;5.88;100.00;98731.50;5089981;28;20588;-57
2022/12/13 02:13:58;;;;;;;3.20;2.90;;;;;;;5.94;100.00;98735.69;5089479;28;20201;-56
2022/12/13 02:16:40;;;;;;;3.53;3.23;;;;;;;5.91;100.00;98735.72;5089031;28;20226;-60
2022/12/13 02:19:49;;;;;;;3.20;3.00;;;;;;;5.95;100.00;98750.25;5089477;28;20326;-65
2022/12/13 02:22:34;;;;;;;2.93;2.73;;;;;;;6.03;100.00;98751.75;5089400;28;20283;-58
2022/12/13 02:25:23;;;;;;;6.33;3.00;;;;;;;6.05;100.00;98755.16;5089535;28;20221;-57
2022/12/13 02:28:06;;;;;;;3.40;3.10;;;;;;;6.06;100.00;98761.16;5089407;28;20206;-64
2022/12/13 02:30:39;;;;;;;3.50;3.20;;;;;;;6.03;100.00;98774.09;5089598;28;20612;-57
2022/12/13 02:33:26;;;;;;;3.77;3.47;;;;;;;5.99;100.00;98777.59;5089298;28;20207;-64
2022/12/13 02:36:04;;;;;;;3.43;3.20;;;;;;;6.02;100.00;98780.97;5089175;28;20207;-57
2022/12/13 02:38:38;;;;;;;3.73;3.47;;;;;;;6.03;100.00;98786.97;5089443;28;20201;-57
2022/12/13 02:41:14;;;;;;;3.67;3.43;;;;;;;6.01;100.00;98791.31;5089553;28;20195;-64
2022/12/13 02:43:47;;;;;;;3.30;3.10;;;;;;;5.85;100.00;98790.78;5089327;28;20206;-56
2022/12/13 02:46:19;;;;;;;3.97;3.70;;;;;;;5.80;100.00;98787.44;5089106;28;20202;-56
2022/12/13 02:48:49;;;;;;;3.90;3.60;;;;;;;5.77;100.00;98783.19;5089429;28;20590;-56
2022/12/13 02:51:17;;;;;;;4.23;3.83;;;;;;;5.81;100.00;98789.13;5089242;28;20195;-56
2022/12/13 02:53:46;;;;;;;3.83;3.53;;;;;;;5.81;100.00;98773.69;5089052;28;20286;-56
2022/12/13 02:56:13;;;;;;;3.77;3.47;;;;;;;5.76;100.00;98773.78;5089093;28;20566;-56
2022/12/13 02:58:43;;;;;;;3.77;3.47;;;;;;;5.73;100.00;98779.00;5088905;28;20191;-56
2022/12/13 03:01:31;;;;;;;3.87;3.57;;;;;;;5.69;100.00;98790.25;5089143;28;20202;-64
2022/12/13 03:04:07;;;;;;;3.50;3.30;;;;;;;5.61;100.00;98805.00;5089064;28;20421;-64
2022/12/13 03:06:45;;;;;;;3.80;3.50;;;;;;;5.61;100.00;98807.59;5089004;28;20666;-64
2022/12/13 03:09:25;;;;;;;5.13;3.20;;;;;;;5.61;100.00;98802.44;5089285;28;20305;-57
2022/12/13 03:15:18;;;;;;;3.80;3.53;;;;;;;5.51;100.00;98803.50;5088884;28;20234;-56
2022/12/13 03:17:51;;;;;;;3.80;3.50;;;;;;;5.47;100.00;98814.72;5088699;28;20215;-56
2022/12/13 03:20:22;;;;;;;3.50;3.20;;;;;;;5.47;100.00;98809.56;5089141;28;20587;-64
2022/12/13 03:22:49;;;;;;;3.80;3.50;;;;;;;5.46;100.00;98813.03;5089172;28;20202;-64
2022/12/13 03:25:16;;;;;;;3.90;3.50;;;;;;;5.43;100.00;98818.22;5088915;28;20306;-64
2022/12/13 03:27:43;;;;;;;3.73;3.43;;;;;;;5.44;100.00;98810.47;5088606;28;20203;-64
2022/12/13 03:30:10;;;;;;;3.70;3.40;;;;;;;5.45;100.00;98816.47;5088758;28;20199;-64
2022/12/13 03:32:37;;;;;;;3.80;3.50;;;;;;;5.45;100.00;98822.47;5090983;28;20710;-65
2022/12/13 03:35:07;;;;;;;4.17;3.77;;;;;;;5.50;100.00;98822.38;5092429;28;20282;-65
2022/12/13 03:37:34;;;;;;;4.00;3.70;;;;;;;5.44;100.00;98819.91;5075807;28;20222;-63
2022/12/13 03:40:01;;;;;;;4.20;3.90;;;;;;;5.45;100.00;98811.31;5072052;28;20198;-63
2022/12/13 03:42:28;;;;;;;4.00;3.70;;;;;;;5.33;100.00;98799.53;5071918;28;20196;-64
2022/12/13 03:44:55;;;;;;;3.50;3.30;;;;;;;5.46;100.00;98800.16;5071877;28;20198;-63
2022/12/13 03:47:22;;;;;;;3.53;3.30;;;;;;;5.53;100.00;98798.31;5072016;28;20202;-63
2022/12/13 03:49:49;;;;;;;3.93;3.63;;;;;;;5.50;100.00;98794.06;5072040;28;20200;-63
2022/12/13 03:52:17;;;;;;;3.80;3.50;;;;;;;5.47;100.00;98794.97;5071916;28;20204;-64
2022/12/13 03:54:44;;;;;;;3.30;3.00;;;;;;;5.51;100.00;98794.94;5071680;28;20583;-62
2022/12/13 03:57:14;;;;;;;3.43;3.20;;;;;;;5.56;100.00;98798.25;5071428;28;20220;-66
2022/12/13 03:59:41;;;;;;;3.30;3.00;;;;;;;5.55;100.00;98796.53;5071942;28;20740;-57
2022/12/13 04:02:08;;;;;;;3.23;3.03;;;;;;;5.50;100.00;98804.38;5071722;28;20222;-55
2022/12/13 04:04:35;;;;;;;3.70;3.40;;;;;;;5.45;100.00;98796.72;5071511;28;20203;-57
2022/12/13 04:07:02;;;;;;;3.50;3.30;;;;;;;5.41;100.00;98794.28;5070942;28;20232;-57
2022/12/13 04:09:30;;;;;;;3.73;3.37;;;;;;;5.38;100.00;98799.47;5070867;28;20196;-56
2022/12/13 04:14:41;;;;;;;3.73;3.43;;;;;;;5.30;100.00;98799.63;5071718;28;20198;-64
2022/12/13 04:17:08;;;;;;;6.27;3.70;;;;;;;5.35;100.00;98797.78;5069605;28;20226;-63
2022/12/13 04:19:35;;;;;;;3.83;3.53;;;;;;;5.43;100.00;98808.78;5070386;28;20214;-64
2022/12/13 04:22:02;;;;;;;4.33;3.63;;;;;;;5.46;100.00;98818.16;5067856;28;20238;-56
2022/12/13 04:24:30;;;;;;;4.30;3.90;;;;;;;5.46;100.00;98821.59;5065946;28;20202;-64
2022/12/13 04:26:57;;;;;;;5.67;4.03;;;;;;;5.41;100.00;98823.44;5069822;28;20246;-63
2022/12/13 04:29:24;;;;;;;4.43;4.10;;;;;;;5.48;100.00;98826.72;5066376;28;20444;-64
2022/12/13 04:31:51;;;;;;;3.93;3.63;;;;;;;5.54;100.00;98829.16;5069556;28;20200;-63
2022/12/13 04:34:18;;;;;;;3.77;3.47;;;;;;;5.60;100.00;98825.63;5070216;28;20196;-63
2022/12/13 04:36:45;;;;;;;4.00;3.70;;;;;;;5.60;100.00;98836.78;5069381;28;20702;-63
2022/12/13 04:39:12;;;;;;;4.40;4.00;;;;;;;5.61;100.00;98835.91;5069578;28;20200;-61
2022/12/13 04:41:40;;;;;;;4.00;3.70;;;;;;;5.57;100.00;98830.81;5070246;28;20199;-60
2022/12/13 04:44:10;;;;;;;4.33;3.83;;;;;;;5.46;100.00;98825.88;5069933;28;20284;-60
2022/12/13 04:46:38;;;;;;;4.03;3.73;;;;;;;5.47;100.00;98840.47;5070123;28;20674;-58
2022/12/13 04:49:05;;;;;;;4.47;4.07;;;;;;;5.45;100.00;98842.22;5069745;28;20211;-60
2022/12/13 04:51:32;;;;;;;5.10;4.00;;;;;;;5.47;100.00;98840.47;5068449;28;20202;-60
2022/12/13 04:53:59;;;;;;;4.27;3.87;;;;;;;5.50;100.00;98850.69;5070092;28;20671;-61
2022/12/13 04:56:26;;;;;;;4.43;4.03;;;;;;;5.40;100.00;98855.19;5070195;28;20198;-61
2022/12/13 04:58:54;;;;;;;4.53;3.90;;;;;;;5.48;100.00;98867.88;5069691;28;20311;-54
2022/12/13 05:01:21;;;;;;;5.87;4.33;;;;;;;5.36;100.00;98874.13;5069563;28;20696;-55
2022/12/13 05:03:48;;;;;;;4.87;4.47;;;;;;;5.40;100.00;98862.06;5069170;28;20203;-55
2022/12/13 05:06:15;;;;;;;4.73;4.33;;;;;;;5.34;100.00;98870.72;5069264;28;20199;-56
2022/12/13 05:08:42;;;;;;;6.77;4.10;;;;;;;5.34;100.00;98872.44;5069284;28;20851;-55
2022/12/13 05:11:11;;;;;;;4.70;4.17;;;;;;;5.23;100.00;98866.63;5069230;28;20196;-55
2022/12/13 05:13:38;;;;;;;4.67;4.27;;;;;;;5.32;100.00;98879.31;5069646;28;20196;-60
2022/12/13 05:16:08;;;;;;;7.53;4.50;;;;;;;5.34;100.00;98882.72;5069652;28;20257;-59
2022/12/13 05:18:36;;;;;;;4.50;4.10;;;;;;;5.33;100.00;98887.03;5071079;28;20223;-60
2022/12/13 05:21:03;;;;;;;4.90;4.43;;;;;;;5.28;100.00;98894.00;5070122;28;20211;-55
2022/12/13 05:23:30;;;;;;;4.27;3.87;;;;;;;5.28;100.00;98899.13;5069830;28;20198;-54
2022/12/13 05:25:57;;;;;;;4.83;4.43;;;;;;;5.16;100.00;98901.91;5069828;28;20214;-55
2022/12/13 05:28:25;;;;;;;4.30;3.93;;;;;;;5.15;100.00;98909.66;5069839;28;20206;-55
2022/12/13 05:30:53;;;;;;;4.77;4.30;;;;;;;5.11;100.00;98908.84;5069621;28;20200;-55
2022/12/13 05:33:21;;;;;;;8.67;6.63;;;;;;;5.11;100.00;98909.69;5069846;28;20204;-55
2022/12/13 05:35:48;;;;;;;7.90;6.73;;;;;;;5.23;100.00;98920.66;5057467;28;20614;-55
2022/12/13 05:38:15;;;;;;;6.77;4.70;;;;;;;5.28;100.00;98916.28;5062908;28;20287;-56
2022/12/13 05:40:42;;;;;;;4.17;3.77;;;;;;;5.27;100.00;98920.59;5067321;28;20227;-56
2022/12/13 05:43:11;;;;;;;4.20;3.90;;;;;;;5.29;100.00;98923.16;5066915;28;20220;-54
2022/12/13 05:45:38;;;;;;;5.23;4.60;;;;;;;5.28;100.00;98924.88;5068166;28;20224;-56
2022/12/13 05:48:05;;;;;;;4.83;4.43;;;;;;;5.25;100.00;98927.47;5067705;28;20218;-56
2022/12/13 05:50:34;;;;;;;4.30;3.97;;;;;;;5.26;100.00;98928.34;5068435;28;20229;-55
2022/12/13 05:53:03;;;;;;;5.67;4.30;;;;;;;5.25;100.00;98939.50;5067859;28;20215;-64
2022/12/13 05:55:30;;;;;;;4.43;4.07;;;;;;;5.22;100.00;98942.09;5067537;28;20307;-64
2022/12/13 05:57:57;;;;;;;5.83;4.97;;;;;;;5.29;100.00;98954.88;5067745;28;20690;-64
2022/12/13 06:00:24;;;;;;;6.33;4.90;;;;;;;5.25;100.00;98952.34;5067374;28;20226;-65
2022/12/13 06:02:51;;;;;;;6.63;4.93;;;;;;;5.21;100.00;98961.00;5067563;28;20212;-64
2022/12/13 06:05:18;;;;;;;5.23;4.67;;;;;;;5.17;100.00;98964.50;5068192;28;20696;-65
2022/12/13 06:07:47;;;;;;;6.03;5.47;;;;;;;5.18;100.00;98961.91;5067867;28;20640;-64
2022/12/13 06:10:14;;;;;;;6.33;5.70;;;;;;;5.10;100.00;98972.31;5067402;28;20224;-65
2022/12/13 06:12:41;;;;;;;7.63;5.23;;;;;;;5.09;100.00;98973.16;5068167;28;20220;-64
2022/12/13 06:15:08;;;;;;;6.53;5.20;;;;;;;5.03;100.00;98975.00;5068044;28;20641;-63
2022/12/13 06:17:36;;;;;;;5.90;5.30;;;;;;;5.01;100.00;98980.16;5067396;28;20234;-64
2022/12/13 06:20:04;;;;;;;7.50;5.60;;;;;;;4.95;100.00;98975.13;5067588;28;20223;-64
2022/12/13 06:22:31;;;;;;;7.47;6.30;;;;;;;4.94;100.00;98983.72;5068048;28;20727;-55
2022/12/13 06:25:00;;;;;;;7.57;6.30;;;;;;;5.02;100.00;98976.72;5067438;28;20234;-63
2022/12/13 06:27:27;;;;;;;6.83;5.73;;;;;;;5.01;100.00;98984.47;5067777;28;20232;-63
2022/12/13 06:29:54;;;;;;;7.30;5.83;;;;;;;5.08;100.00;98984.34;5067652;28;20225;-62
2022/12/13 06:32:21;;;;;;;8.97;6.40;;;;;;;5.11;100.00;98997.16;5067169;28;20306;-65
2022/12/13 06:34:48;;;;;;;8.40;6.17;;;;;;;5.21;100.00;99002.16;5068238;28;20394;-64
2022/12/13 06:37:15;;;;;;;8.73;5.40;;;;;;;5.20;100.00;99006.44;5067358;28;20223;-56
2022/12/13 06:39:42;;;;;;;11.43;6.27;;;;;;;5.24;100.00;99009.84;5067715;28;20300;-56
2022/12/13 06:42:15;;;;;;;6.63;5.63;;;;;;;5.27;100.00;99013.22;5067525;28;20216;-55
2022/12/13 06:44:42;;;;;;;8.57;5.10;;;;;;;5.30;100.00;99014.91;5068082;28;20225;-57
2022/12/13 06:47:10;;;;;;;7.43;5.57;;;;;;;5.30;99.58;99012.31;5067288;28;20307;-56
2022/12/13 06:49:37;;;;;;;8.73;4.97;;;;;;;5.13;98.30;99019.44;5067934;28;20796;-55
2022/12/13 06:52:04;;;;;;;7.83;6.30;;;;;;;5.14;98.55;99026.28;5067328;28;21090;-55
2022/12/13 06:54:31;;;;;;;5.90;5.20;;;;;;;5.21;97.67;99025.31;5067673;28;20212;-55
2022/12/13 06:56:58;;;;;;;14.97;6.77;;;;;;;5.22;99.33;99024.44;5067532;28;20220;-55
2022/12/13 06:59:26;;;;;;;10.20;6.03;;;;;;;5.20;97.49;99026.19;5067204;28;20316;-55
2022/12/13 07:01:53;;;;;;;10.70;6.17;;;;;;;5.09;98.91;99027.19;5063989;28;20220;-55
2022/12/13 07:04:20;;;;;;;8.97;6.73;;;;;;;5.18;98.22;99033.09;5063273;28;20226;-55
2022/12/13 07:06:46;;;;;;;12.10;5.93;;;;;;;5.14;98.39;99039.16;5066716;28;20200;-55
2022/12/13 07:09:13;;;;;;;10.23;6.73;;;;;;;5.11;98.84;99038.31;5068755;28;20199;-56
2022/12/13 07:11:40;;;;;;;9.10;6.77;;;;;;;5.12;98.24;99036.59;5071409;28;20275;-55
2022/12/13 07:14:07;;;;;;;8.23;6.13;;;;;;;5.21;99.50;99043.31;5066958;28;20596;-55
2022/12/13 07:16:35;;;;;;;8.07;6.30;;;;;;;5.20;98.99;99046.75;5071685;28;20224;-56
2022/12/13 07:19:03;;;;;;;9.70;7.03;;;;;;;5.16;98.99;99034.84;5070606;28;20233;-55
2022/12/13 07:21:32;;;;;;;12.53;7.57;;;;;;;5.14;100.00;99042.56;5071814;28;20262;-57
2022/12/13 07:24:00;;;;;;;9.83;7.50;;;;;;;5.00;99.59;99034.19;5071453;28;20235;-56
2022/12/13 07:26:27;;;;;;;10.03;7.33;;;;;;;5.13;99.83;99047.72;5071756;28;20612;-55
2022/12/13 07:28:53;;;;;;;8.67;7.10;;;;;;;5.09;100.00;99054.63;5071157;28;20235;-56
2022/12/13 07:31:21;;;;;;;8.63;6.83;;;;;;;5.01;100.00;99062.47;5071970;28;20656;-56
2022/12/13 07:33:50;;;;;;;7.13;6.40;;;;;;;5.04;100.00;99054.72;5071386;28;20279;-63
2022/12/13 07:36:18;;;;;;;8.97;6.43;;;;;;;4.98;100.00;99043.66;5071751;28;20227;-64
2022/12/13 07:38:50;;;;;;;7.07;6.37;;;;;;;5.12;100.00;99062.31;5071151;28;20236;-64
2022/12/13 07:41:17;;;;;;;9.20;6.90;;;;;;;5.21;100.00;99056.19;5071629;28;20227;-65
2022/12/13 07:43:44;;;;;;;9.23;6.30;;;;;;;5.34;100.00;99055.97;5070929;28;20226;-63
2022/12/13 07:46:10;;;;;;;9.00;6.47;;;;;;;5.33;99.89;99059.41;5071542;28;20313;-65
2022/12/13 07:48:37;;;;;;;9.07;6.77;;;;;;;5.39;100.00;99068.78;5071526;28;20606;-62
2022/12/13 07:51:09;;;;;;;9.10;7.23;;;;;;;5.43;98.83;99063.56;5071463;28;20724;-63
2022/12/13 07:53:36;;;;;;;12.10;6.67;;;;;;;5.42;99.07;99069.56;5071428;28;20269;-63
2022/12/13 07:56:04;;;;;;;9.20;7.27;;;;;;;5.41;98.34;99064.47;5071338;28;20780;-64
2022/12/13 07:58:32;;;;;;;10.43;6.63;;;;;;;5.47;97.41;99077.22;5070830;28;20230;-55
2022/12/13 08:01:00;;;;;;;9.27;7.00;;;;;;;5.60;98.43;99086.47;5070143;28;20693;-56
2022/12/13 08:03:28;;;;;;;7.57;6.40;;;;;;;5.66;97.54;99085.50;5071035;28;20207;-55
2022/12/13 08:06:02;;;;;;;11.17;7.20;;;;;;;5.57;97.82;99080.50;5071456;28;20212;-65
2022/12/13 08:08:31;;;;;;;6.17;5.57;;;;;;;5.55;97.72;99071.97;5071266;28;20228;-64
2022/12/13 08:11:01;;;;;;;6.73;5.90;;;;;;;5.61;97.23;99074.44;5071399;28;20210;-64
2022/12/13 08:13:28;;;;;;;7.50;6.27;;;;;;;5.62;96.66;99082.16;5071453;28;20671;-55
2022/12/13 08:15:59;;;;;;;8.37;6.20;;;;;;;5.63;96.55;99085.59;5071343;28;20206;-64
2022/12/13 08:18:26;;;;;;;7.87;5.67;;;;;;;5.55;96.18;99085.69;5070745;28;20651;-64
2022/12/13 08:20:52;;;;;;;13.43;5.83;;;;;;;5.55;96.23;99083.09;5071220;28;20222;-64
2022/12/13 08:23:19;;;;;;;9.63;6.40;;;;;;;5.58;95.94;99095.09;5071258;28;20286;-64
2022/12/13 08:25:52;;;;;;;6.30;5.63;;;;;;;5.65;94.93;99092.38;5071059;28;20200;-65
2022/12/13 08:28:19;;;;;;;10.63;6.00;;;;;;;5.73;94.80;99087.97;5071327;28;20570;-56
2022/12/13 08:30:47;;;;;;;7.40;6.20;;;;;;;5.74;93.43;99100.00;5070917;28;20203;-56
2022/12/13 08:33:14;;;;;;;7.10;6.40;;;;;;;5.81;93.97;99093.84;5071258;28;20286;-56
2022/12/13 08:35:40;;;;;;;10.57;7.43;;;;;;;5.81;92.52;99104.16;5071022;28;20199;-64
2022/12/13 08:38:08;;;;;;;12.27;8.87;;;;;;;5.96;92.20;99097.09;5069075;28;20214;-55
2022/12/13 08:40:35;;;;;;;16.23;8.40;;;;;;;6.16;92.01;99097.59;5069910;28;20196;-56
2022/12/13 08:43:04;;;;;;;8.47;6.63;;;;;;;6.13;91.43;99102.78;5069513;28;20279;-57
2022/12/13 08:45:33;;;;;;;10.47;7.30;;;;;;;6.08;90.97;99099.47;5069367;28;20716;-55
2022/12/13 08:48:00;;;;;;;8.83;7.27;;;;;;;6.23;89.87;99096.59;5068695;28;20249;-56
2022/12/13 08:50:29;;;;;;;12.03;7.67;;;;;;;6.41;89.96;99090.25;5069106;28;20199;-55
2022/12/13 08:52:56;;;;;;;15.43;8.73;;;;;;;6.64;90.13;99084.66;5069092;28;20623;-56
2022/12/13 08:55:23;;;;;;;7.70;6.87;;;;;;;6.59;90.08;99081.31;5069260;28;20202;-57
2022/12/13 08:57:50;;;;;;;12.80;7.50;;;;;;;6.51;89.83;99082.31;5069192;28;20196;-56
2022/12/13 09:00:19;;;;;;;17.33;8.80;;;;;;;6.47;89.18;99087.56;5069077;28;20237;-56
2022/12/13 09:02:46;;;;;;;9.77;7.23;;;;;;;6.39;88.77;99082.56;5066830;28;20672;-64
2022/12/13 09:05:14;;;;;;;11.90;6.90;;;;;;;6.32;87.60;99086.09;5068562;28;20200;-64
2022/12/13 09:07:42;;;;;;;9.87;7.30;;;;;;;6.38;88.08;99085.16;5068737;28;20219;-63
2022/12/13 09:10:10;;;;;;;16.67;10.97;;;;;;;6.42;87.47;99082.50;5068797;28;20223;-56
2022/12/13 09:12:41;;;;;;;14.10;9.77;;;;;;;6.47;88.21;99067.78;5069072;28;20227;-56
2022/12/13 09:15:09;;;;;;;11.67;8.37;;;;;;;6.52;87.60;99071.13;5066700;28;20697;-55
2022/12/13 09:17:37;;;;;;;10.07;7.53;;;;;;;6.37;87.17;99042.22;5068754;28;20314;-55
2022/12/13 09:20:08;;;;;;;9.93;7.90;;;;;;;6.54;86.88;99066.81;5067904;28;20294;-55
2022/12/13 09:22:35;;;;;;;22.00;13.17;;;;;;;6.75;87.32;99065.50;5068604;28;20207;-55
2022/12/13 09:25:02;;;;;;;24.90;13.97;;;;;;;6.90;86.86;99069.47;5069789;28;20671;-56
2022/12/13 09:27:29;;;;;;;28.77;15.77;;;;;;;6.92;87.80;99062.56;5069712;28;20568;-56
2022/12/13 09:29:56;;;;;;;24.30;12.93;;;;;;;6.92;87.04;99071.16;5068869;28;20711;-56
2022/12/13 09:32:24;;;;;;;18.43;12.27;;;;;;;6.87;86.80;99070.41;5069640;28;20278;-56
2022/12/13 09:34:52;;;;;;;24.60;13.77;;;;;;;6.78;86.00;99062.84;5069903;28;20713;-63
2022/12/13 09:37:19;;;;;;;11.27;8.67;;;;;;;6.75;86.08;99056.94;5068498;28;20599;-56
2022/12/13 09:39:47;;;;;;;11.60;8.33;;;;;;;6.71;86.60;99063.03;5064444;28;20227;-55
2022/12/13 09:42:20;;;;;;;16.83;9.07;;;;;;;6.73;86.34;99058.69;5069111;28;20222;-55
2022/12/13 09:44:52;;;;;;;10.17;7.97;;;;;;;6.77;85.76;99044.84;5068085;28;20238;-64
2022/12/13 09:47:30;;;;;;;13.40;7.20;;;;;;;6.65;86.99;99045.97;5067272;28;21235;-64
2022/12/13 09:50:00;;;;;;;12.03;8.27;;;;;;;6.62;86.85;99037.44;5069124;28;20223;-64
2022/12/13 09:52:30;;;;;;;25.43;15.43;;;;;;;6.71;86.99;99032.06;5069666;28;20636;-64
2022/12/13 09:54:59;;;;;;;11.13;7.40;;;;;;;6.64;87.59;99030.50;5069698;28;20198;-64
2022/12/13 09:57:28;;;;;;;12.97;8.33;;;;;;;6.60;87.68;99023.72;5069888;28;20208;-64
2022/12/13 09:59:56;;;;;;;12.13;7.93;;;;;;;6.65;87.81;99021.91;5069853;28;20226;-64
2022/12/13 10:02:25;;;;;;;10.00;7.33;;;;;;;6.64;87.60;99038.25;5069426;28;20591;-63
2022/12/13 10:04:52;;;;;;;9.60;7.30;;;;;;;6.61;87.40;99030.56;5049147;28;20233;-63
2022/12/13 10:07:23;;;;;;;10.20;7.50;;;;;;;6.64;87.63;99025.34;5049551;28;20252;-64
2022/12/13 10:09:59;;;;;;;7.53;6.73;;;;;;;6.74;86.36;99025.13;5049237;28;20315;-64
2022/12/13 10:12:26;;;;;;;9.03;7.30;;;;;;;6.85;86.28;99024.91;5070057;28;20731;-65
2022/12/13 10:14:58;;;;;;;9.00;7.47;;;;;;;6.91;86.85;99025.59;5069342;28;20199;-65
2022/12/13 10:17:31;;;;;;;11.43;7.30;;;;;;;6.89;85.94;99023.94;5069873;28;20202;-64
2022/12/13 10:19:58;;;;;;;10.03;6.67;;;;;;;6.89;86.00;99026.50;5069682;28;20240;-64
2022/12/13 10:22:27;;;;;;;8.10;7.07;;;;;;;6.86;86.87;99032.59;5069672;28;20683;-64
2022/12/13 10:24:56;;;;;;;11.20;7.90;;;;;;;6.81;86.55;99013.78;5069762;28;20192;-64
2022/12/13 10:27:28;;;;;;;8.57;7.63;;;;;;;6.95;86.67;99031.56;5069952;28;20585;-64
2022/12/13 10:30:01;;;;;;;11.47;7.77;;;;;;;6.90;85.63;99023.06;5069781;28;20208;-55
2022/12/13 10:32:32;;;;;;;8.43;7.53;;;;;;;6.95;85.77;99020.38;5066908;28;20501;-56
2022/12/13 10:34:59;;;;;;;12.60;8.70;;;;;;;6.96;86.22;99019.50;5068740;28;20289;-56
2022/12/13 10:37:31;;;;;;;15.23;11.37;;;;;;;7.00;85.95;99019.38;5066067;28;20228;-56
2022/12/13 10:39:59;;;;;;;10.10;7.80;;;;;;;7.06;85.57;99008.94;5048487;28;20228;-56
2022/12/13 10:42:26;;;;;;;18.87;12.80;;;;;;;7.19;84.64;99009.50;5052144;28;20323;-64
2022/12/13 10:45:23;;;;;;;10.90;7.33;;;;;;;7.22;82.63;99006.88;5052457;28;20616;-62
2022/12/13 10:47:50;;;;;;;7.13;6.43;;;;;;;7.36;82.49;99009.09;5028825;28;20298;-62
2022/12/13 10:50:26;;;;;;;8.73;7.10;;;;;;;7.58;83.01;99005.09;5052548;28;20603;-64
2022/12/13 10:52:55;;;;;;;8.10;6.57;;;;;;;7.81;84.64;99000.22;5056309;28;20234;-64
2022/12/13 10:55:28;;;;;;;11.20;7.50;;;;;;;8.14;81.32;99002.78;5072815;28;20212;-64
2022/12/13 10:57:59;;;;;;;8.17;6.47;;;;;;;8.35;80.25;98992.72;5072287;28;20630;-64
2022/12/13 11:00:37;;;;;;;8.80;6.53;;;;;;;8.44;79.21;98990.78;5072466;28;20262;-64
2022/12/13 11:03:05;;;;;;;7.00;6.30;;;;;;;8.30;79.45;98978.22;5072242;28;20220;-64
2022/12/13 11:05:34;;;;;;;7.63;6.80;;;;;;;8.26;80.51;98968.84;5072466;28;20216;-64
2022/12/13 11:08:20;;;;;;;9.77;7.20;;;;;;;8.30;80.79;98981.66;5071798;28;20752;-64
2022/12/13 11:10:56;;;;;;;9.33;6.70;;;;;;;8.33;79.99;98989.38;5092540;28;20210;-64
2022/12/13 11:13:32;;;;;;;9.83;7.33;;;;;;;8.36;79.22;98985.81;5091995;28;20604;-63
2022/12/13 11:16:00;;;;;;;10.07;7.07;;;;;;;8.52;79.53;98976.75;5091641;28;20201;-64
2022/12/13 11:18:34;;;;;;;10.23;7.17;;;;;;;8.65;78.13;98978.09;5091727;28;20227;-63
2022/12/13 11:21:03;;;;;;;11.60;8.53;;;;;;;8.73;79.27;98968.34;5092408;28;20197;-65
2022/12/13 11:23:35;;;;;;;10.30;7.77;;;;;;;8.74;79.70;98964.88;5092232;28;20202;-64
2022/12/13 11:26:08;;;;;;;18.37;12.27;;;;;;;8.86;79.47;98968.81;5091669;28;20282;-56
2022/12/13 11:28:59;;;;;;;17.43;12.40;;;;;;;8.92;79.22;98967.78;5092415;28;20199;-56
2022/12/13 11:31:35;;;;;;;12.53;8.10;;;;;;;9.00;78.84;98960.66;5092182;28;20674;-56
2022/12/13 11:34:13;;;;;;;10.17;8.00;;;;;;;8.97;78.52;98959.00;5092260;28;20663;-56
2022/12/13 11:36:47;;;;;;;9.97;7.77;;;;;;;9.05;77.56;98966.50;5092233;28;20286;-56
2022/12/13 11:39:21;;;;;;;9.80;8.80;;;;;;;9.17;75.66;98968.72;5092256;28;20702;-64
2022/12/13 11:41:54;;;;;;;27.70;17.13;;;;;;;9.12;73.96;98974.94;5091773;28;20195;-63
2022/12/13 11:44:28;;;;;;;9.20;7.63;;;;;;;9.06;73.71;98973.38;5092094;28;20577;-55
2022/12/13 11:46:57;;;;;;;7.97;7.07;;;;;;;8.99;74.92;98970.16;5092346;28;20245;-55
2022/12/13 11:49:37;;;;;;;8.97;7.03;;;;;;;8.88;74.47;98963.59;5092279;28;20192;-56